AirNav   Pilot Hours Calculator
 
 1924 users online  

2WN6 Cunningham Airport
Granton, Wisconsin, USA

GOING TO GRANTON?


FAA INFORMATION EFFECTIVE 02 JANUARY 2020

Location

FAA Identifier: 2WN6
Lat/Long: 44-31-46.8630N 090-25-09.4840W
44-31.781050N 090-25.158067W
44.5296842,-90.4193011
(estimated)
Elevation: 1089 ft. / 332 m (estimated)
Variation: 01E (1985)
From city: 3 miles S of GRANTON, WI
Time zone: UTC -6 (UTC -5 during Daylight Saving Time)
Zip code: 54436

Airport Operations

Airport use: Private use. Permission required prior to landing
Activation date: 02/1968
Control tower: no
ARTCC: MINNEAPOLIS CENTER
FSS: GREEN BAY FLIGHT SERVICE STATION
Attendance: IREG
Wind indicator: yes
Segmented circle: no

Airport Communications

WX ASOS at MFI (12 nm NE): 121.575 (715-387-6516)

Nearby radio navigation aids

NDB name  Hdg/Dist  Freq  Var  ID
CALIN258/11.726600EDU -.. ..-
WISCONSIN RAPIDS293/26.721501WISW .. ... .--
MCCOY015/36.841200ECMY -.-. -- -.--

Airport Services

Airframe service: NONE
Powerplant service: NONE

Runway Information

Runway 4/22

Dimensions: 2500 x 60 ft. / 762 x 18 m
Surface: turf
RUNWAY 4  RUNWAY 22
Traffic pattern: leftleft
Obstructions: 40 ft. trees40 ft. trees

Airport Ownership and Management from official FAA records

Ownership: Privately-owned
Owner: JUSTIN T. SMITH
5683 HWY X
PITTSVILLE, WI 54466
Phone 715-884-2310

Airport Operational Statistics

Aircraft based on the field: 1
Single engine airplanes: 1
    

Additional Remarks

120' TWR SOUTH SIDE.
CLOSED WINTERS EXCEPT SKI EQPD ACFT.
FOR CD CTC MINNEAPOLIS ARTCC AT 651-463-5588.

Instrument Procedures

There are no published instrument procedures at 2WN6.

Some nearby airports with instrument procedures:

KVIQ - Neillsville Municipal Airport (4 nm NW)
KMFI - Marshfield Municipal Airport (12 nm NE)
KBCK - Black River Falls Area Airport (25 nm SW)
KISW - Alexander Field South Wood County Airport (27 nm E)
KDAF - Necedah Airport (33 nm SE)
 
Loc | Ops | Rwys | IFR | FBO | Links
Com | Nav | Svcs | Stats | Notes
Area around 2WN6 (Cunningham Airport)
 
Road maps at: MapQuest Bing Google
 
Aerial photo
WARNING: Photo may not be current or correct
Aerial photo of 2WN6 (Cunningham Airport)
Do you have a better or more recent aerial photo of Cunningham Airport that you would like to share? If so, please send us your photo.

 
Sectional chart

 
Airport distance calculator
Flying to Cunningham Airport? Find the distance to fly.

From to 2WN6

Sunrise and sunset
Times for 23-Jan-2020
 Local
(UTC-6)
 Zulu
(UTC)
Morning civil twilight06:5912:59
Sunrise07:3013:30
Sunset16:5722:57
Evening civil twilight17:2923:29

Current date and time
Zulu (UTC)  23-Jan-2020 20:09:42
Local (UTC-6)  23-Jan-2020 14:09:42
 
METAR
KMFI 
12nm NE 
231954Z AUTO 08007KT 4SM HZ OVC011 M01/M03 A2998 RMK AO2 SNB23E32 SLP171 P0000 T10061033
TAF
KCWA 
35nm NE 
231731Z 2318/2418 12004KT 1 1/2SM -SN SCT005 OVC015 TEMPO 2318/2319 1SM -SN BR OVC005 FM231900 08004KT 2SM -SN BR OVC007 FM240200 08004KT 1 1/2SM -SN BR OVC003
KVOK 
37nm S 
231220Z 2312/2415 VRB06KT 2400 -SN FEW002 OVC006 620069 QNH2995INS TEMPO 2312/2314 3200 BKN008 BECMG 2314/2315 15006KT 9999 NSW FEW005 BKN015 620158 QNH2995INS BECMG 2318/2319 15006KT 9999 BKN020 620208 QNH2998INS BECMG 2411/2412 03006KT 8000 -SN OVC005 620059 QNH2997INS TX00/2321Z TNM02/2312Z
KAUW 
42nm NE 
231731Z 2318/2418 12004KT 1 1/2SM -SN BR SCT007 OVC015 TEMPO 2318/2319 3/4SM -SN BR OVC007 FM231900 08004KT 2SM -SN BR OVC007 FM240200 08004KT 1 1/2SM -SN BR OVC003
NOTAMs
Click for the latest NOTAMs
NOTAMs are issued by the DoD/FAA and will open in a separate window not controlled by AirNav.

 

 
 

Would you like to see your business listed on this page?

 If your business provides an interesting product or service to pilots, flight crews, aircraft, or users of the Cunningham Airport, you should consider listing it here.  To start the listing process, click on the button below
 
Add a business
 

Other Pages about Cunningham Airport

Update a link
 
Copyright © AirNav, LLC. All rights reserved. Privacy Policy  Contact